Time;durP1;ratioP1;P1;durP2;ratioP2;P2;SDS_P1;SDS_P2;PMS_P1;PMS_P2;Temp;Humidity;BMP_temperature;BMP_pressure;BME280_temperature;BME280_humidity;BME280_pressure;Samples;Min_cycle;Max_cycle;Signal;HPM_P1;HPM_P2
2021/10/30 00:04:22;;;;;;;27.88;22.55;;;;;;;;;;10273027;28;20068;-57
2021/10/30 00:09:20;;;;;;;25.98;20.45;;;;;;;;;;10271821;28;20525;-55
2021/10/30 00:14:18;;;;;;;32.75;22.52;;;;;;;;;;10272651;28;20529;-58
2021/10/30 00:19:17;;;;;;;29.33;22.23;;;;;;;;;;10271703;28;20064;-57
2021/10/30 00:24:16;;;;;;;30.33;21.23;;;;;;;;;;10270533;28;20071;-53
2021/10/30 00:29:15;;;;;;;28.73;20.65;;;;;;;;;;10274819;28;20060;-57
2021/10/30 00:34:13;;;;;;;26.95;21.25;;;;;;;;;;10279820;28;20080;-56
2021/10/30 00:39:12;;;;;;;27.70;20.92;;;;;;;;;;10279961;28;20068;-55
2021/10/30 00:44:12;;;;;;;25.63;19.95;;;;;;;;;;10288216;28;20077;-57
2021/10/30 00:49:10;;;;;;;28.38;20.45;;;;;;;;;;10285456;28;20060;-55
2021/10/30 00:54:09;;;;;;;33.22;22.10;;;;;;;;;;10286060;28;20064;-56
2021/10/30 00:59:09;;;;;;;27.23;19.83;;;;;;;;;;10279721;28;20076;-56
2021/10/30 01:04:08;;;;;;;26.60;20.65;;;;;;;;;;10280668;28;20068;-57
2021/10/30 01:09:07;;;;;;;26.35;21.42;;;;;;;;;;10278033;28;20095;-58
2021/10/30 01:14:05;;;;;;;25.20;19.40;;;;;;;;;;10279224;28;20535;-58
2021/10/30 01:19:05;;;;;;;33.42;21.77;;;;;;;;;;10277900;28;20075;-58
2021/10/30 01:24:05;;;;;;;32.10;23.15;;;;;;;;;;10275016;28;20072;-57
2021/10/30 01:29:05;;;;;;;28.90;22.33;;;;;;;;;;10279588;28;20482;-57
2021/10/30 01:34:04;;;;;;;33.42;21.83;;;;;;;;;;10280456;28;20072;-57
2021/10/30 01:39:04;;;;;;;27.02;19.90;;;;;;;;;;10277743;28;20068;-58
2021/10/30 01:44:03;;;;;;;24.45;19.88;;;;;;;;;;10278256;28;20072;-57
2021/10/30 01:49:02;;;;;;;23.85;19.48;;;;;;;;;;10279155;28;20072;-60
2021/10/30 01:54:01;;;;;;;24.00;18.50;;;;;;;;;;10275839;28;20067;-57
2021/10/30 01:59:01;;;;;;;22.75;18.45;;;;;;;;;;10275864;28;20072;-58
2021/10/30 02:03:59;;;;;;;24.52;19.30;;;;;;;;;;10274921;28;20072;-58
2021/10/30 02:08:57;;;;;;;30.67;19.35;;;;;;;;;;10274678;28;20065;-57
2021/10/30 02:13:56;;;;;;;24.17;18.52;;;;;;;;;;10275732;28;20064;-58
2021/10/30 02:18:55;;;;;;;29.83;19.08;;;;;;;;;;10274486;28;20087;-55
2021/10/30 02:23:54;;;;;;;24.73;19.42;;;;;;;;;;10273920;28;20490;-55
2021/10/30 02:28:52;;;;;;;22.00;18.58;;;;;;;;;;10274679;28;20071;-53
2021/10/30 02:33:50;;;;;;;23.20;18.42;;;;;;;;;;10274846;28;20083;-56
2021/10/30 02:38:51;;;;;;;22.17;17.27;;;;;;;;;;10275302;28;20087;-56
2021/10/30 02:43:50;;;;;;;25.40;19.05;;;;;;;;;;10279200;28;20096;-55
2021/10/30 02:48:48;;;;;;;25.88;18.50;;;;;;;;;;10273616;28;20079;-54
2021/10/30 02:53:46;;;;;;;23.70;19.33;;;;;;;;;;10271790;28;20470;-56
2021/10/30 02:58:46;;;;;;;24.90;18.90;;;;;;;;;;10273240;28;20095;-57
2021/10/30 03:03:45;;;;;;;40.20;25.67;;;;;;;;;;10277497;28;20099;-58
2021/10/30 03:08:44;;;;;;;26.75;20.52;;;;;;;;;;10277719;28;20069;-58
2021/10/30 03:13:42;;;;;;;27.33;20.25;;;;;;;;;;10272066;28;20069;-58
2021/10/30 03:18:42;;;;;;;29.08;19.30;;;;;;;;;;10272465;28;20068;-58
2021/10/30 03:23:40;;;;;;;25.35;19.63;;;;;;;;;;10271356;28;20083;-58
2021/10/30 03:28:38;;;;;;;27.90;19.95;;;;;;;;;;10278195;28;20064;-58
2021/10/30 03:33:37;;;;;;;24.40;19.17;;;;;;;;;;10273372;28;20072;-57
2021/10/30 03:38:37;;;;;;;26.42;20.48;;;;;;;;;;10278190;28;20069;-58
2021/10/30 03:43:37;;;;;;;26.27;21.33;;;;;;;;;;10271254;28;20492;-58
2021/10/30 03:48:35;;;;;;;28.77;22.35;;;;;;;;;;10273030;28;20064;-58
2021/10/30 03:53:34;;;;;;;31.58;23.48;;;;;;;;;;10270258;28;20091;-57
2021/10/30 03:58:35;;;;;;;28.83;21.00;;;;;;;;;;10277225;28;20503;-58
2021/10/30 04:03:33;;;;;;;24.60;20.10;;;;;;;;;;10272291;28;20076;-58
2021/10/30 04:08:33;;;;;;;22.85;19.25;;;;;;;;;;10279800;28;20430;-58
2021/10/30 04:13:32;;;;;;;24.02;19.13;;;;;;;;;;10279457;28;20119;-58
2021/10/30 04:18:31;;;;;;;29.65;23.38;;;;;;;;;;10279106;28;20073;-56
2021/10/30 04:23:29;;;;;;;59.90;36.25;;;;;;;;;;10278920;28;20505;-58
2021/10/30 04:28:28;;;;;;;34.28;26.42;;;;;;;;;;10278930;28;20072;-58
2021/10/30 04:33:26;;;;;;;55.70;24.60;;;;;;;;;;10279210;28;20077;-58
2021/10/30 04:38:26;;;;;;;54.42;21.35;;;;;;;;;;10278336;28;20060;-58
2021/10/30 04:43:24;;;;;;;100.88;25.35;;;;;;;;;;10278225;28;20100;-57
2021/10/30 04:48:23;;;;;;;69.15;21.02;;;;;;;;;;10277896;28;20580;-58
2021/10/30 04:53:21;;;;;;;120.82;19.63;;;;;;;;;;10279653;28;20103;-58
2021/10/30 04:58:20;;;;;;;58.83;20.23;;;;;;;;;;10281907;28;20070;-59
2021/10/30 05:03:19;;;;;;;64.85;24.13;;;;;;;;;;10276606;28;20084;-58
2021/10/30 05:08:17;;;;;;;34.25;19.48;;;;;;;;;;10277371;28;20076;-58
2021/10/30 05:13:15;;;;;;;31.08;20.25;;;;;;;;;;10275326;28;20073;-58
2021/10/30 05:18:15;;;;;;;41.38;18.00;;;;;;;;;;10276032;28;20512;-59
2021/10/30 05:23:13;;;;;;;48.50;26.58;;;;;;;;;;10275355;28;20143;-59
2021/10/30 05:28:12;;;;;;;112.63;15.38;;;;;;;;;;10275180;28;20391;-57
2021/10/30 05:33:10;;;;;;;92.43;17.55;;;;;;;;;;10281397;28;20080;-57
2021/10/30 05:38:28;;;;;;;33.88;12.18;;;;;;;;;;10281030;28;20084;-59
2021/10/30 05:43:27;;;;;;;20.52;10.20;;;;;;;;;;10275165;28;20470;-58
2021/10/30 05:48:25;;;;;;;27.15;10.93;;;;;;;;;;10275204;28;20465;-57
2021/10/30 05:53:24;;;;;;;25.15;13.18;;;;;;;;;;10274736;28;20076;-58
2021/10/30 05:58:23;;;;;;;17.60;11.90;;;;;;;;;;10274119;28;20536;-56
2021/10/30 06:03:22;;;;;;;31.15;15.60;;;;;;;;;;10279397;28;20068;-57
2021/10/30 06:08:20;;;;;;;47.90;18.40;;;;;;;;;;10273569;28;20079;-56
2021/10/30 06:13:18;;;;;;;39.97;15.55;;;;;;;;;;10273829;28;20075;-56
2021/10/30 06:18:18;;;;;;;34.70;15.02;;;;;;;;;;10273698;28;20064;-57
2021/10/30 06:23:16;;;;;;;28.20;18.58;;;;;;;;;;10273105;28;20078;-56
2021/10/30 06:28:15;;;;;;;35.70;15.70;;;;;;;;;;10272837;28;20091;-57
2021/10/30 06:33:13;;;;;;;22.30;18.08;;;;;;;;;;10274226;28;20083;-55
2021/10/30 06:38:13;;;;;;;51.85;32.67;;;;;;;;;;10274765;28;20068;-59
2021/10/30 06:43:11;;;;;;;46.53;23.85;;;;;;;;;;10272800;28;20072;-58
2021/10/30 06:48:11;;;;;;;31.52;19.27;;;;;;;;;;10273400;28;20079;-57
2021/10/30 06:53:09;;;;;;;45.42;16.35;;;;;;;;;;10272144;28;20054;-58
2021/10/30 06:58:09;;;;;;;25.50;15.43;;;;;;;;;;10276618;28;20173;-59
2021/10/30 07:03:07;;;;;;;37.95;18.00;;;;;;;;;;10287385;28;20064;-59
2021/10/30 07:08:06;;;;;;;27.73;19.23;;;;;;;;;;10276223;28;20074;-58
2021/10/30 07:13:04;;;;;;;46.35;25.20;;;;;;;;;;10276230;28;20482;-58
2021/10/30 07:18:04;;;;;;;29.90;16.45;;;;;;;;;;10271359;28;20064;-58
2021/10/30 07:23:02;;;;;;;48.05;19.85;;;;;;;;;;10272811;28;20498;-60
2021/10/30 07:28:00;;;;;;;28.95;19.05;;;;;;;;;;10297473;28;20087;-59
2021/10/30 07:32:58;;;;;;;61.08;29.13;;;;;;;;;;10280354;28;20085;-59
2021/10/30 07:38:00;;;;;;;45.28;26.08;;;;;;;;;;10272395;28;20107;-57
2021/10/30 07:42:58;;;;;;;73.97;46.80;;;;;;;;;;10273009;28;20083;-58
2021/10/30 07:47:57;;;;;;;66.88;32.53;;;;;;;;;;10272165;28;20516;-57
2021/10/30 07:52:55;;;;;;;89.00;38.05;;;;;;;;;;10270985;28;20068;-58
2021/10/30 07:57:56;;;;;;;52.47;28.88;;;;;;;;;;10292852;28;20458;-59
2021/10/30 08:02:54;;;;;;;30.48;18.75;;;;;;;;;;10284002;28;20103;-58
2021/10/30 08:07:52;;;;;;;32.45;18.52;;;;;;;;;;10286868;28;20079;-58
2021/10/30 08:12:50;;;;;;;40.20;22.88;;;;;;;;;;10271067;28;20068;-58
2021/10/30 08:17:52;;;;;;;30.70;19.52;;;;;;;;;;10268620;28;20087;-58
2021/10/30 08:22:50;;;;;;;35.63;18.40;;;;;;;;;;10289829;28;20072;-57
2021/10/30 08:27:48;;;;;;;41.67;19.75;;;;;;;;;;10270675;28;20067;-56
2021/10/30 08:32:47;;;;;;;46.75;28.48;;;;;;;;;;10269830;28;20083;-58
2021/10/30 08:37:46;;;;;;;38.00;24.92;;;;;;;;;;10268404;28;20076;-58
2021/10/30 08:42:45;;;;;;;32.88;21.15;;;;;;;;;;10275272;28;20057;-58
2021/10/30 08:47:45;;;;;;;29.98;20.13;;;;;;;;;;10269685;28;20068;-58
2021/10/30 08:52:43;;;;;;;22.55;16.48;;;;;;;;;;10276417;28;20077;-60
2021/10/30 08:57:43;;;;;;;24.80;18.25;;;;;;;;;;10279283;28;20127;-58
2021/10/30 09:02:41;;;;;;;30.27;19.83;;;;;;;;;;10277892;28;20060;-58
2021/10/30 09:07:40;;;;;;;34.83;22.15;;;;;;;;;;10278327;28;20080;-58
2021/10/30 09:12:38;;;;;;;31.30;22.85;;;;;;;;;;10278455;28;20068;-59
2021/10/30 09:17:38;;;;;;;28.75;18.63;;;;;;;;;;10277917;28;20065;-59
2021/10/30 09:22:36;;;;;;;23.38;18.40;;;;;;;;;;10282585;28;20528;-57
2021/10/30 09:27:48;;;;;;;24.00;17.95;;;;;;;;;;10276431;28;20069;-58
2021/10/30 09:32:56;;;;;;;20.33;17.20;;;;;;;;;;10280427;28;20092;-58
2021/10/30 09:37:54;;;;;;;26.52;22.20;;;;;;;;;;10280196;28;20095;-58
2021/10/30 09:42:53;;;;;;;20.38;17.33;;;;;;;;;;10283212;28;20163;-58
2021/10/30 09:48:01;;;;;;;26.02;17.45;;;;;;;;;;10274729;28;20079;-58
2021/10/30 09:53:00;;;;;;;33.17;20.88;;;;;;;;;;10273314;28;20199;-59
2021/10/30 09:57:59;;;;;;;35.78;22.38;;;;;;;;;;10280666;28;20080;-58
2021/10/30 10:03:00;;;;;;;29.52;22.38;;;;;;;;;;10273342;28;20068;-57
2021/10/30 10:07:59;;;;;;;26.27;21.30;;;;;;;;;;10274173;28;20060;-57
2021/10/30 10:12:58;;;;;;;26.77;21.05;;;;;;;;;;10276555;28;20097;-58
2021/10/30 10:17:57;;;;;;;29.02;21.45;;;;;;;;;;10271609;28;20091;-57
2021/10/30 10:22:57;;;;;;;44.13;30.73;;;;;;;;;;10273464;28;20068;-58
2021/10/30 10:27:55;;;;;;;41.60;32.33;;;;;;;;;;10281922;28;20079;-59
2021/10/30 10:33:15;;;;;;;29.77;25.67;;;;;;;;;;10272564;28;20083;-59
2021/10/30 10:38:16;;;;;;;37.88;26.67;;;;;;;;;;10271736;28;20060;-59
2021/10/30 10:43:43;;;;;;;31.38;24.77;;;;;;;;;;10273719;28;20064;-59
2021/10/30 10:48:41;;;;;;;40.80;28.55;;;;;;;;;;10277869;28;20091;-59
2021/10/30 10:53:56;;;;;;;39.83;30.90;;;;;;;;;;10277824;28;20053;-59
2021/10/30 10:59:04;;;;;;;52.53;35.30;;;;;;;;;;10273855;28;20060;-59
2021/10/30 11:04:13;;;;;;;73.88;45.10;;;;;;;;;;10295914;28;20064;-59
2021/10/30 11:09:14;;;;;;;52.08;32.75;;;;;;;;;;10281468;28;20064;-58
2021/10/30 11:14:14;;;;;;;94.40;43.63;;;;;;;;;;10269900;28;20072;-59
2021/10/30 11:19:32;;;;;;;63.53;44.10;;;;;;;;;;10281132;28;20099;-59
2021/10/30 11:24:32;;;;;;;64.38;36.28;;;;;;;;;;10276679;28;20497;-58
2021/10/30 11:29:30;;;;;;;57.13;35.15;;;;;;;;;;10275276;28;20077;-58
2021/10/30 11:34:29;;;;;;;48.42;32.70;;;;;;;;;;10276316;28;20068;-57
2021/10/30 11:39:29;;;;;;;46.05;31.17;;;;;;;;;;10279911;28;20091;-58
2021/10/30 11:44:29;;;;;;;56.47;39.05;;;;;;;;;;10275236;28;20088;-57
2021/10/30 11:49:28;;;;;;;43.40;31.00;;;;;;;;;;10268955;28;20084;-58
2021/10/30 11:54:27;;;;;;;46.88;35.03;;;;;;;;;;10277596;28;20509;-58
2021/10/30 11:59:25;;;;;;;38.60;27.77;;;;;;;;;;10272569;28;20095;-58
2021/10/30 12:04:34;;;;;;;34.28;26.25;;;;;;;;;;10271639;28;20081;-59
2021/10/30 12:09:41;;;;;;;37.42;26.38;;;;;;;;;;10272506;28;20076;-59
2021/10/30 12:14:40;;;;;;;31.33;24.67;;;;;;;;;;10270648;28;20060;-58
2021/10/30 12:19:41;;;;;;;31.80;25.05;;;;;;;;;;10269786;28;20060;-58
2021/10/30 12:24:40;;;;;;;29.48;23.15;;;;;;;;;;10284427;28;20069;-58
2021/10/30 12:29:42;;;;;;;36.88;25.98;;;;;;;;;;10278929;28;20096;-58
2021/10/30 12:34:43;;;;;;;92.45;66.10;;;;;;;;;;10276911;28;20080;-59
2021/10/30 12:39:42;;;;;;;39.60;32.00;;;;;;;;;;10278907;28;20064;-58
2021/10/30 12:44:40;;;;;;;38.58;26.58;;;;;;;;;;10277410;28;20065;-59
2021/10/30 12:49:40;;;;;;;25.92;21.40;;;;;;;;;;10275354;28;20540;-58
2021/10/30 12:55:00;;;;;;;32.00;25.63;;;;;;;;;;10277300;28;20466;-57
2021/10/30 12:59:59;;;;;;;29.65;23.40;;;;;;;;;;10278327;28;20068;-58
2021/10/30 13:04:57;;;;;;;28.20;23.30;;;;;;;;;;10278300;28;20064;-58
2021/10/30 13:09:57;;;;;;;33.13;26.92;;;;;;;;;;10278188;28;20083;-58
2021/10/30 13:14:57;;;;;;;32.00;24.63;;;;;;;;;;10277978;28;20068;-58
2021/10/30 13:19:58;;;;;;;28.90;22.02;;;;;;;;;;10274817;28;20092;-58
2021/10/30 13:24:57;;;;;;;48.50;32.20;;;;;;;;;;10275484;28;20053;-58
2021/10/30 13:29:56;;;;;;;45.92;31.50;;;;;;;;;;10275655;28;20081;-55
2021/10/30 13:34:55;;;;;;;33.88;24.08;;;;;;;;;;10276903;28;20075;-58
2021/10/30 13:39:53;;;;;;;32.47;23.85;;;;;;;;;;10273661;28;20045;-58
2021/10/30 13:44:51;;;;;;;34.33;24.92;;;;;;;;;;10275224;28;20065;-58
2021/10/30 13:49:51;;;;;;;35.40;25.83;;;;;;;;;;10273593;28;20083;-58
2021/10/30 13:54:49;;;;;;;55.45;39.80;;;;;;;;;;10274680;28;20447;-58
2021/10/30 13:59:47;;;;;;;65.65;42.63;;;;;;;;;;10276209;28;20071;-58
2021/10/30 14:04:46;;;;;;;36.70;28.58;;;;;;;;;;10274291;28;20188;-57
2021/10/30 14:09:45;;;;;;;30.35;25.98;;;;;;;;;;10276524;28;20516;-57
2021/10/30 14:14:44;;;;;;;37.47;30.17;;;;;;;;;;10275434;28;20044;-58
2021/10/30 14:19:43;;;;;;;39.25;29.83;;;;;;;;;;10274688;28;20060;-58
2021/10/30 14:24:41;;;;;;;46.90;35.35;;;;;;;;;;10275001;28;20072;-59
2021/10/30 14:29:41;;;;;;;57.33;39.20;;;;;;;;;;10273278;28;20073;-60
2021/10/30 14:34:55;;;;;;;37.35;28.65;;;;;;;;;;10271706;28;20073;-55
2021/10/30 14:39:53;;;;;;;48.05;34.10;;;;;;;;;;10274644;28;20496;-53
2021/10/30 14:44:52;;;;;;;45.42;33.63;;;;;;;;;;10277014;28;20064;-53
2021/10/30 14:49:51;;;;;;;38.97;30.70;;;;;;;;;;10272521;28;20079;-55
2021/10/30 14:54:49;;;;;;;42.88;33.53;;;;;;;;;;10276723;28;20073;-52
2021/10/30 14:59:47;;;;;;;46.38;35.05;;;;;;;;;;10280306;28;20060;-54
2021/10/30 15:04:47;;;;;;;49.63;34.28;;;;;;;;;;10280657;28;20127;-55
2021/10/30 15:09:45;;;;;;;39.58;29.75;;;;;;;;;;10273759;28;20103;-53
2021/10/30 15:14:47;;;;;;;40.00;28.10;;;;;;;;;;10277669;28;20064;-52
2021/10/30 15:19:46;;;;;;;39.33;29.70;;;;;;;;;;10283335;28;20069;-50
2021/10/30 15:24:46;;;;;;;45.42;31.75;;;;;;;;;;10277921;28;20111;-55
2021/10/30 15:29:44;;;;;;;39.47;29.52;;;;;;;;;;10281296;28;20080;-52
2021/10/30 15:34:45;;;;;;;38.45;28.15;;;;;;;;;;10282121;28;20072;-51
2021/10/30 15:39:44;;;;;;;39.13;30.70;;;;;;;;;;10282277;28;20079;-54
2021/10/30 15:44:43;;;;;;;35.40;28.67;;;;;;;;;;10278331;28;20072;-54
2021/10/30 15:49:41;;;;;;;106.57;37.58;;;;;;;;;;10278463;28;20076;-50
2021/10/30 15:54:39;;;;;;;58.45;30.48;;;;;;;;;;10287014;28;20081;-54
2021/10/30 15:59:39;;;;;;;68.13;28.38;;;;;;;;;;10280551;28;20061;-53
2021/10/30 16:04:37;;;;;;;36.85;28.02;;;;;;;;;;10290067;28;20113;-53
2021/10/30 16:09:36;;;;;;;33.75;24.85;;;;;;;;;;10284652;28;20073;-49
2021/10/30 16:14:34;;;;;;;34.42;28.17;;;;;;;;;;10294350;28;20072;-54
2021/10/30 16:19:34;;;;;;;42.38;35.05;;;;;;;;;;10285806;28;20084;-53
2021/10/30 16:24:32;;;;;;;45.05;35.20;;;;;;;;;;10285923;28;20052;-50
2021/10/30 16:29:31;;;;;;;33.80;29.98;;;;;;;;;;10290974;28;20110;-54
2021/10/30 16:34:29;;;;;;;34.55;28.08;;;;;;;;;;10273670;28;20506;-54
2021/10/30 16:39:29;;;;;;;27.27;24.23;;;;;;;;;;10283982;28;20056;-53
2021/10/30 16:44:27;;;;;;;36.50;30.75;;;;;;;;;;10288499;28;20072;-55
2021/10/30 16:49:25;;;;;;;52.47;37.90;;;;;;;;;;10279676;28;20068;-53
2021/10/30 16:54:23;;;;;;;46.85;34.88;;;;;;;;;;10290333;28;20083;-55
2021/10/30 16:59:23;;;;;;;36.67;28.23;;;;;;;;;;10292994;28;20064;-53
2021/10/30 17:04:22;;;;;;;37.72;31.33;;;;;;;;;;10290315;28;20088;-52
2021/10/30 17:09:20;;;;;;;34.40;28.90;;;;;;;;;;10289210;28;20505;-55
2021/10/30 17:14:18;;;;;;;34.13;29.35;;;;;;;;;;10284311;28;20076;-54
2021/10/30 17:19:19;;;;;;;36.45;29.85;;;;;;;;;;10287488;28;20064;-52
2021/10/30 17:24:17;;;;;;;46.55;36.42;;;;;;;;;;10282892;28;20099;-53
2021/10/30 17:29:15;;;;;;;40.20;33.10;;;;;;;;;;10284864;28;20514;-56
2021/10/30 17:34:14;;;;;;;41.10;30.20;;;;;;;;;;10282785;28;20072;-55
2021/10/30 17:39:13;;;;;;;40.17;33.28;;;;;;;;;;10283049;28;20498;-54
2021/10/30 17:44:12;;;;;;;33.78;26.75;;;;;;;;;;10275143;28;20076;-54
2021/10/30 17:49:10;;;;;;;33.25;27.52;;;;;;;;;;10274862;28;20497;-54
2021/10/30 17:54:10;;;;;;;35.10;28.08;;;;;;;;;;10277128;28;20068;-53
2021/10/30 17:59:10;;;;;;;30.40;26.73;;;;;;;;;;10278025;28;20462;-51
2021/10/30 18:04:08;;;;;;;37.55;28.55;;;;;;;;;;10276661;28;20490;-53
2021/10/30 18:09:07;;;;;;;31.83;27.00;;;;;;;;;;10280466;28;20068;-55
2021/10/30 18:14:06;;;;;;;33.97;26.20;;;;;;;;;;10282584;28;20067;-53
2021/10/30 18:19:06;;;;;;;32.33;25.08;;;;;;;;;;10280228;28;20520;-53
2021/10/30 18:24:04;;;;;;;31.08;23.90;;;;;;;;;;10277813;28;20077;-54
2021/10/30 18:29:03;;;;;;;38.42;30.65;;;;;;;;;;10278186;28;20442;-48
2021/10/30 18:34:02;;;;;;;40.70;31.27;;;;;;;;;;10268624;28;20080;-52
2021/10/30 18:39:01;;;;;;;43.63;28.33;;;;;;;;;;10272440;28;20068;-53
2021/10/30 18:44:00;;;;;;;29.15;24.38;;;;;;;;;;10274550;28;20073;-51
2021/10/30 18:48:58;;;;;;;31.02;26.30;;;;;;;;;;10277621;28;20060;-52
2021/10/30 18:53:57;;;;;;;30.90;25.08;;;;;;;;;;10270585;28;20064;-53
2021/10/30 18:58:56;;;;;;;40.80;30.45;;;;;;;;;;10271982;28;20079;-52
2021/10/30 19:03:55;;;;;;;36.22;26.08;;;;;;;;;;10268426;28;20473;-48
2021/10/30 19:08:53;;;;;;;34.28;25.67;;;;;;;;;;10277808;28;20493;-52
2021/10/30 19:13:52;;;;;;;37.08;29.30;;;;;;;;;;10273003;28;20127;-49
2021/10/30 19:18:51;;;;;;;33.72;27.95;;;;;;;;;;10272745;28;20753;-52
2021/10/30 19:23:49;;;;;;;63.00;50.35;;;;;;;;;;10269632;28;20072;-52
2021/10/30 19:28:48;;;;;;;37.97;27.17;;;;;;;;;;10272300;28;20521;-51
2021/10/30 19:33:46;;;;;;;53.88;38.80;;;;;;;;;;10280824;28;20498;-49
2021/10/30 19:38:50;;;;;;;53.05;37.97;;;;;;;;;;10272810;28;20068;-51
2021/10/30 19:43:48;;;;;;;42.85;31.30;;;;;;;;;;10269128;28;20477;-53
2021/10/30 19:49:05;;;;;;;40.97;31.95;;;;;;;;;;10273825;28;20568;-52
2021/10/30 19:54:05;;;;;;;57.45;37.67;;;;;;;;;;10279150;28;20123;-51
2021/10/30 19:59:03;;;;;;;42.78;30.50;;;;;;;;;;10270299;28;20068;-52
2021/10/30 20:04:01;;;;;;;31.58;25.25;;;;;;;;;;10269506;28;20393;-52
2021/10/30 20:09:00;;;;;;;33.20;26.52;;;;;;;;;;10272084;28;20097;-56
2021/10/30 20:14:04;;;;;;;38.90;30.58;;;;;;;;;;10269071;28;20546;-55
2021/10/30 20:19:02;;;;;;;30.10;25.33;;;;;;;;;;10270581;28;20143;-55
2021/10/30 20:24:01;;;;;;;33.80;26.45;;;;;;;;;;10273534;28;20064;-53
2021/10/30 20:29:02;;;;;;;31.27;26.10;;;;;;;;;;10269668;28;20072;-49
2021/10/30 20:34:19;;;;;;;28.98;24.65;;;;;;;;;;10266302;28;20492;-48
2021/10/30 20:39:18;;;;;;;31.67;22.35;;;;;;;;;;10266159;28;20591;-51
2021/10/30 20:44:18;;;;;;;27.45;23.48;;;;;;;;;;10272072;28;20068;-53
2021/10/30 20:49:16;;;;;;;30.58;24.30;;;;;;;;;;10276225;28;20072;-52
2021/10/30 20:54:15;;;;;;;29.67;24.38;;;;;;;;;;10257660;28;20496;-50
2021/10/30 20:59:13;;;;;;;28.08;22.27;;;;;;;;;;10278443;28;20554;-54
2021/10/30 21:04:13;;;;;;;29.33;24.35;;;;;;;;;;10281279;28;20068;-53
2021/10/30 21:09:14;;;;;;;29.95;23.85;;;;;;;;;;10286548;28;20514;-52
2021/10/30 21:14:13;;;;;;;31.92;24.38;;;;;;;;;;10284012;28;20465;-55
2021/10/30 21:19:12;;;;;;;31.77;24.40;;;;;;;;;;10275542;28;20673;-53
2021/10/30 21:24:13;;;;;;;31.88;22.30;;;;;;;;;;10282343;28;20072;-54
2021/10/30 21:29:11;;;;;;;30.40;24.40;;;;;;;;;;10276994;28;20076;-55
2021/10/30 21:34:09;;;;;;;31.15;24.52;;;;;;;;;;10276752;28;20087;-55
2021/10/30 21:39:09;;;;;;;30.13;24.00;;;;;;;;;;10277345;28;20061;-56
2021/10/30 21:44:08;;;;;;;30.38;23.23;;;;;;;;;;10286235;28;20504;-54
2021/10/30 21:49:06;;;;;;;32.22;24.25;;;;;;;;;;10284967;28;20069;-53
2021/10/30 21:54:11;;;;;;;27.33;22.88;;;;;;;;;;10278824;28;20076;-60
2021/10/30 21:59:09;;;;;;;30.23;22.35;;;;;;;;;;10283273;28;20480;-61
2021/10/30 22:04:08;;;;;;;26.83;20.92;;;;;;;;;;10284788;28;20080;-60
2021/10/30 22:09:06;;;;;;;28.52;22.80;;;;;;;;;;10283348;28;20060;-61
2021/10/30 22:14:07;;;;;;;27.27;21.80;;;;;;;;;;10279359;28;20589;-61
2021/10/30 22:19:06;;;;;;;29.30;23.35;;;;;;;;;;10277708;28;20075;-60
2021/10/30 22:24:05;;;;;;;31.58;23.00;;;;;;;;;;10278304;28;20071;-61
2021/10/30 22:29:03;;;;;;;25.35;21.50;;;;;;;;;;10278014;28;20072;-61
2021/10/30 22:34:03;;;;;;;29.70;24.40;;;;;;;;;;10273681;28;20141;-61
2021/10/30 22:39:01;;;;;;;34.08;27.65;;;;;;;;;;10274722;28;20133;-61
2021/10/30 22:44:00;;;;;;;30.45;24.08;;;;;;;;;;10283505;28;20619;-62
2021/10/30 22:48:58;;;;;;;30.13;23.33;;;;;;;;;;10280104;28;20060;-56
2021/10/30 22:53:58;;;;;;;29.83;22.90;;;;;;;;;;10290760;28;20481;-53
2021/10/30 22:58:56;;;;;;;34.95;26.60;;;;;;;;;;10274227;28;20072;-51
2021/10/30 23:03:54;;;;;;;30.55;23.00;;;;;;;;;;10280013;28;20056;-54
2021/10/30 23:08:53;;;;;;;29.40;22.80;;;;;;;;;;10278350;28;20075;-51
2021/10/30 23:13:53;;;;;;;29.15;22.52;;;;;;;;;;10279513;28;20071;-50
2021/10/30 23:18:51;;;;;;;28.95;22.63;;;;;;;;;;10275658;28;20076;-52
2021/10/30 23:23:49;;;;;;;32.67;23.75;;;;;;;;;;10273176;28;20076;-52
2021/10/30 23:28:48;;;;;;;34.08;26.88;;;;;;;;;;10272337;28;20524;-53
2021/10/30 23:33:47;;;;;;;27.95;23.15;;;;;;;;;;10274763;28;20095;-56
2021/10/30 23:38:46;;;;;;;27.63;22.05;;;;;;;;;;10274195;28;20076;-54
2021/10/30 23:43:44;;;;;;;28.67;20.83;;;;;;;;;;10313315;28;20060;-49
2021/10/30 23:48:42;;;;;;;31.63;22.65;;;;;;;;;;10272478;28;20037;-50
2021/10/30 23:53:42;;;;;;;28.98;22.10;;;;;;;;;;10283844;28;20076;-53
2021/10/30 23:58:41;;;;;;;27.63;22.58;;;;;;;;;;10275108;28;20076;-54
